sensor_id;sensor_type;location;lat;lon;timestamp;pressure;altitude;pressure_sealevel;temperature;humidity
40117;BME280;25829;50.228;18.936;2023-10-09T00:03:20;99453.63;;;3.00;69.96
40117;BME280;25829;50.228;18.936;2023-10-09T00:06:23;99469.41;;;2.98;69.72
40117;BME280;25829;50.228;18.936;2023-10-09T00:09:39;99480.63;;;2.89;69.51
40117;BME280;25829;50.228;18.936;2023-10-09T00:12:50;99469.22;;;2.81;70.03
40117;BME280;25829;50.228;18.936;2023-10-09T00:15:51;99453.72;;;2.79;70.00
40117;BME280;25829;50.228;18.936;2023-10-09T00:18:53;99447.81;;;2.77;70.03
40117;BME280;25829;50.228;18.936;2023-10-09T00:21:55;99435.88;;;2.74;70.05
40117;BME280;25829;50.228;18.936;2023-10-09T00:24:57;99431.63;;;2.73;70.02
40117;BME280;25829;50.228;18.936;2023-10-09T00:28:11;99433.81;;;2.68;69.86
40117;BME280;25829;50.228;18.936;2023-10-09T00:31:11;99422.69;;;2.66;70.20
40117;BME280;25829;50.228;18.936;2023-10-09T00:34:17;99394.03;;;2.66;70.39
40117;BME280;25829;50.228;18.936;2023-10-09T00:54:12;99330.25;;;2.51;70.74
40117;BME280;25829;50.228;18.936;2023-10-09T00:57:15;99329.28;;;2.52;70.51
40117;BME280;25829;50.228;18.936;2023-10-09T01:00:17;99338.28;;;2.38;70.52
40117;BME280;25829;50.228;18.936;2023-10-09T01:03:33;99351.97;;;2.31;70.70
40117;BME280;25829;50.228;18.936;2023-10-09T01:06:34;99358.31;;;2.28;71.29
40117;BME280;25829;50.228;18.936;2023-10-09T01:09:43;99361.47;;;2.32;71.40
40117;BME280;25829;50.228;18.936;2023-10-09T01:12:45;99358.56;;;2.35;71.14
40117;BME280;25829;50.228;18.936;2023-10-09T01:15:47;99349.69;;;2.37;70.76
40117;BME280;25829;50.228;18.936;2023-10-09T01:18:51;99357.63;;;2.36;70.58
40117;BME280;25829;50.228;18.936;2023-10-09T01:21:52;99353.91;;;2.38;71.25
40117;BME280;25829;50.228;18.936;2023-10-09T01:24:53;99354.06;;;2.37;70.64
40117;BME280;25829;50.228;18.936;2023-10-09T01:27:55;99356.41;;;2.40;71.10
40117;BME280;25829;50.228;18.936;2023-10-09T01:30:58;99352.31;;;2.47;71.37
40117;BME280;25829;50.228;18.936;2023-10-09T01:34:01;99370.84;;;2.54;71.53
40117;BME280;25829;50.228;18.936;2023-10-09T01:37:06;99366.03;;;2.59;71.63
40117;BME280;25829;50.228;18.936;2023-10-09T01:40:12;99371.13;;;2.60;71.44
40117;BME280;25829;50.228;18.936;2023-10-09T01:43:27;99354.25;;;2.64;71.75
40117;BME280;25829;50.228;18.936;2023-10-09T01:46:28;99357.28;;;2.69;71.67
40117;BME280;25829;50.228;18.936;2023-10-09T01:49:37;99354.00;;;2.67;71.13
40117;BME280;25829;50.228;18.936;2023-10-09T01:52:41;99361.78;;;2.58;71.53
40117;BME280;25829;50.228;18.936;2023-10-09T01:55:43;99368.75;;;2.47;71.86
40117;BME280;25829;50.228;18.936;2023-10-09T01:58:46;99349.44;;;2.50;72.06
40117;BME280;25829;50.228;18.936;2023-10-09T02:01:47;99344.25;;;2.60;72.40
40117;BME280;25829;50.228;18.936;2023-10-09T02:04:48;99329.72;;;2.67;72.24
40117;BME280;25829;50.228;18.936;2023-10-09T02:07:49;99315.19;;;2.74;72.10
40117;BME280;25829;50.228;18.936;2023-10-09T02:10:53;99308.59;;;2.80;72.02
40117;BME280;25829;50.228;18.936;2023-10-09T02:13:56;99296.81;;;2.85;72.60
40117;BME280;25829;50.228;18.936;2023-10-09T02:16:57;99291.19;;;2.90;72.21
40117;BME280;25829;50.228;18.936;2023-10-09T02:20:07;99296.81;;;2.95;72.61
40117;BME280;25829;50.228;18.936;2023-10-09T02:23:18;99283.34;;;2.99;72.67
40117;BME280;25829;50.228;18.936;2023-10-09T02:26:24;99297.78;;;2.94;72.19
40117;BME280;25829;50.228;18.936;2023-10-09T02:29:26;99296.66;;;2.87;72.25
40117;BME280;25829;50.228;18.936;2023-10-09T02:32:27;99301.06;;;2.86;72.95
40117;BME280;25829;50.228;18.936;2023-10-09T02:35:28;99303.66;;;2.86;72.55
40117;BME280;25829;50.228;18.936;2023-10-09T02:38:39;99304.09;;;2.91;72.71
40117;BME280;25829;50.228;18.936;2023-10-09T02:41:41;99299.97;;;2.98;72.65
40117;BME280;25829;50.228;18.936;2023-10-09T02:44:50;99297.63;;;3.05;73.03
40117;BME280;25829;50.228;18.936;2023-10-09T02:47:51;99310.66;;;3.15;73.30
40117;BME280;25829;50.228;18.936;2023-10-09T02:50:56;99318.06;;;3.19;72.93
40117;BME280;25829;50.228;18.936;2023-10-09T02:54:04;99308.03;;;3.25;73.07
40117;BME280;25829;50.228;18.936;2023-10-09T02:57:40;99311.72;;;3.32;73.14
40117;BME280;25829;50.228;18.936;2023-10-09T03:00:42;99302.41;;;3.39;72.97
40117;BME280;25829;50.228;18.936;2023-10-09T03:03:45;99305.56;;;3.42;72.98
40117;BME280;25829;50.228;18.936;2023-10-09T03:06:46;99282.47;;;3.48;73.38
40117;BME280;25829;50.228;18.936;2023-10-09T03:09:57;99281.38;;;3.50;73.40
40117;BME280;25829;50.228;18.936;2023-10-09T03:12:58;99284.66;;;3.52;73.31
40117;BME280;25829;50.228;18.936;2023-10-09T03:16:02;99277.38;;;3.56;73.17
40117;BME280;25829;50.228;18.936;2023-10-09T03:19:02;99264.84;;;3.59;73.18
40117;BME280;25829;50.228;18.936;2023-10-09T03:22:07;99266.66;;;3.59;73.30
40117;BME280;25829;50.228;18.936;2023-10-09T03:25:12;99255.66;;;3.65;73.56
40117;BME280;25829;50.228;18.936;2023-10-09T03:28:14;99258.66;;;3.70;73.09
40117;BME280;25829;50.228;18.936;2023-10-09T03:31:15;99249.28;;;3.77;73.15
40117;BME280;25829;50.228;18.936;2023-10-09T03:34:17;99241.84;;;3.82;72.96
40117;BME280;25829;50.228;18.936;2023-10-09T03:37:18;99223.13;;;3.87;72.94
40117;BME280;25829;50.228;18.936;2023-10-09T03:40:35;99213.38;;;3.89;73.30
40117;BME280;25829;50.228;18.936;2023-10-09T03:43:39;99217.31;;;3.93;72.94
40117;BME280;25829;50.228;18.936;2023-10-09T03:46:41;99233.66;;;3.95;73.01
40117;BME280;25829;50.228;18.936;2023-10-09T03:49:44;99230.66;;;3.90;72.65
40117;BME280;25829;50.228;18.936;2023-10-09T03:52:45;99231.78;;;3.87;73.47
40117;BME280;25829;50.228;18.936;2023-10-09T03:55:46;99232.84;;;3.95;73.69
40117;BME280;25829;50.228;18.936;2023-10-09T03:58:51;99224.41;;;4.01;73.65
40117;BME280;25829;50.228;18.936;2023-10-09T04:01:55;99215.19;;;4.06;73.73
40117;BME280;25829;50.228;18.936;2023-10-09T04:04:58;99196.97;;;4.14;73.79
40117;BME280;25829;50.228;18.936;2023-10-09T04:07:58;99179.91;;;4.20;73.97
40117;BME280;25829;50.228;18.936;2023-10-09T04:11:02;99172.44;;;4.25;73.65
40117;BME280;25829;50.228;18.936;2023-10-09T04:14:04;99187.28;;;4.25;73.56
40117;BME280;25829;50.228;18.936;2023-10-09T04:17:10;99198.63;;;4.15;73.88
40117;BME280;25829;50.228;18.936;2023-10-09T04:20:23;99215.09;;;3.98;74.83
40117;BME280;25829;50.228;18.936;2023-10-09T04:23:24;99209.03;;;3.98;75.00
40117;BME280;25829;50.228;18.936;2023-10-09T04:26:36;99189.88;;;4.07;74.96
40117;BME280;25829;50.228;18.936;2023-10-09T04:29:44;99185.28;;;4.19;75.08
40117;BME280;25829;50.228;18.936;2023-10-09T04:32:50;99166.91;;;4.28;74.66
40117;BME280;25829;50.228;18.936;2023-10-09T04:35:51;99151.31;;;4.36;74.30
40117;BME280;25829;50.228;18.936;2023-10-09T04:39:11;99143.53;;;4.45;74.84
40117;BME280;25829;50.228;18.936;2023-10-09T04:42:15;99139.34;;;4.52;74.46
40117;BME280;25829;50.228;18.936;2023-10-09T04:45:25;99133.53;;;4.58;74.37
40117;BME280;25829;50.228;18.936;2023-10-09T04:48:46;99137.34;;;4.63;74.24
40117;BME280;25829;50.228;18.936;2023-10-09T04:51:47;99124.78;;;4.67;74.47
40117;BME280;25829;50.228;18.936;2023-10-09T04:55:01;99126.75;;;4.73;73.97
40117;BME280;25829;50.228;18.936;2023-10-09T04:58:08;99127.78;;;4.80;74.38
40117;BME280;25829;50.228;18.936;2023-10-09T05:01:08;99123.75;;;4.86;73.87
40117;BME280;25829;50.228;18.936;2023-10-09T05:04:17;99119.84;;;4.90;74.35
40117;BME280;25829;50.228;18.936;2023-10-09T05:07:50;99119.84;;;4.90;74.09
40117;BME280;25829;50.228;18.936;2023-10-09T05:14:04;99105.13;;;4.89;74.91
40117;BME280;25829;50.228;18.936;2023-10-09T05:17:13;99095.00;;;4.94;74.96
40117;BME280;25829;50.228;18.936;2023-10-09T05:20:17;99093.75;;;4.98;74.81
40117;BME280;25829;50.228;18.936;2023-10-09T05:23:26;99082.81;;;5.03;75.29
40117;BME280;25829;50.228;18.936;2023-10-09T05:26:27;99090.19;;;5.07;75.44
40117;BME280;25829;50.228;18.936;2023-10-09T05:29:46;99084.31;;;5.13;74.58
40117;BME280;25829;50.228;18.936;2023-10-09T05:33:10;99070.94;;;5.17;75.05
40117;BME280;25829;50.228;18.936;2023-10-09T05:36:29;99074.69;;;5.22;75.64
40117;BME280;25829;50.228;18.936;2023-10-09T05:39:29;99066.41;;;5.27;74.98
40117;BME280;25829;50.228;18.936;2023-10-09T05:42:41;99057.06;;;5.32;75.45
40117;BME280;25829;50.228;18.936;2023-10-09T05:45:42;99064.47;;;5.37;75.09
40117;BME280;25829;50.228;18.936;2023-10-09T05:49:01;99058.91;;;5.40;75.01
40117;BME280;25829;50.228;18.936;2023-10-09T05:52:10;99071.16;;;5.40;75.41
40117;BME280;25829;50.228;18.936;2023-10-09T05:55:49;99081.47;;;5.41;75.75
40117;BME280;25829;50.228;18.936;2023-10-09T05:59:08;99094.75;;;5.48;75.24
40117;BME280;25829;50.228;18.936;2023-10-09T06:02:27;99096.75;;;5.54;75.36
40117;BME280;25829;50.228;18.936;2023-10-09T06:06:06;99103.94;;;5.60;75.26
40117;BME280;25829;50.228;18.936;2023-10-09T06:09:09;99107.72;;;5.66;75.35
40117;BME280;25829;50.228;18.936;2023-10-09T06:12:16;99101.19;;;5.70;75.34
40117;BME280;25829;50.228;18.936;2023-10-09T06:15:37;99101.53;;;5.75;75.10
40117;BME280;25829;50.228;18.936;2023-10-09T06:19:14;99109.41;;;5.83;75.26
40117;BME280;25829;50.228;18.936;2023-10-09T06:22:27;99118.56;;;5.87;75.27
40117;BME280;25829;50.228;18.936;2023-10-09T06:25:36;99120.09;;;5.90;75.75
40117;BME280;25829;50.228;18.936;2023-10-09T06:28:39;99124.81;;;5.94;76.06
40117;BME280;25829;50.228;18.936;2023-10-09T06:31:50;99133.34;;;5.96;76.07
40117;BME280;25829;50.228;18.936;2023-10-09T06:35:06;99130.25;;;6.01;76.19
40117;BME280;25829;50.228;18.936;2023-10-09T06:38:22;99141.53;;;6.01;75.98
40117;BME280;25829;50.228;18.936;2023-10-09T06:41:23;99148.06;;;5.97;75.25
40117;BME280;25829;50.228;18.936;2023-10-09T06:44:35;99134.00;;;5.90;75.31
40117;BME280;25829;50.228;18.936;2023-10-09T06:47:54;99129.03;;;5.87;75.89
40117;BME280;25829;50.228;18.936;2023-10-09T06:51:09;99115.75;;;5.80;75.24
40117;BME280;25829;50.228;18.936;2023-10-09T06:54:35;99106.28;;;5.71;75.72
40117;BME280;25829;50.228;18.936;2023-10-09T06:57:39;99093.66;;;5.67;75.51
40117;BME280;25829;50.228;18.936;2023-10-09T07:01:12;99106.25;;;5.63;76.29
40117;BME280;25829;50.228;18.936;2023-10-09T07:05:20;99099.19;;;5.64;76.26
40117;BME280;25829;50.228;18.936;2023-10-09T07:08:21;99103.00;;;5.69;76.88
40117;BME280;25829;50.228;18.936;2023-10-09T07:11:39;99103.47;;;5.73;76.52
40117;BME280;25829;50.228;18.936;2023-10-09T07:14:40;99104.78;;;5.69;75.97
40117;BME280;25829;50.228;18.936;2023-10-09T07:17:48;99098.56;;;5.70;76.63
40117;BME280;25829;50.228;18.936;2023-10-09T07:20:53;99095.31;;;5.68;76.53
40117;BME280;25829;50.228;18.936;2023-10-09T07:24:35;99084.34;;;5.72;76.84
40117;BME280;25829;50.228;18.936;2023-10-09T07:31:19;99060.59;;;5.57;77.52
40117;BME280;25829;50.228;18.936;2023-10-09T07:34:55;99063.84;;;5.51;77.85
40117;BME280;25829;50.228;18.936;2023-10-09T07:38:06;99054.81;;;5.46;78.07
40117;BME280;25829;50.228;18.936;2023-10-09T07:41:09;99054.34;;;5.42;78.41
40117;BME280;25829;50.228;18.936;2023-10-09T07:44:28;99062.53;;;5.47;78.01
40117;BME280;25829;50.228;18.936;2023-10-09T07:47:54;99066.78;;;5.48;77.86
40117;BME280;25829;50.228;18.936;2023-10-09T07:51:15;99066.47;;;5.51;78.14
40117;BME280;25829;50.228;18.936;2023-10-09T07:54:19;99072.06;;;5.65;78.09
40117;BME280;25829;50.228;18.936;2023-10-09T07:57:45;99072.25;;;5.79;78.76
40117;BME280;25829;50.228;18.936;2023-10-09T08:00:57;99053.28;;;5.86;77.56
40117;BME280;25829;50.228;18.936;2023-10-09T08:04:26;99050.19;;;5.90;77.89
40117;BME280;25829;50.228;18.936;2023-10-09T08:07:50;99045.56;;;5.84;77.36
40117;BME280;25829;50.228;18.936;2023-10-09T08:11:16;99033.16;;;5.78;78.02
40117;BME280;25829;50.228;18.936;2023-10-09T08:14:35;99012.66;;;5.73;78.27
40117;BME280;25829;50.228;18.936;2023-10-09T08:17:39;99007.94;;;5.69;78.92
40117;BME280;25829;50.228;18.936;2023-10-09T08:20:40;98984.19;;;5.62;78.78
40117;BME280;25829;50.228;18.936;2023-10-09T08:24:01;98975.03;;;5.58;79.58
40117;BME280;25829;50.228;18.936;2023-10-09T08:27:11;98975.03;;;5.58;79.92
40117;BME280;25829;50.228;18.936;2023-10-09T08:30:32;98935.28;;;5.54;80.10
40117;BME280;25829;50.228;18.936;2023-10-09T08:34:13;98927.59;;;5.53;80.96
40117;BME280;25829;50.228;18.936;2023-10-09T08:38:07;98930.38;;;5.59;81.06
40117;BME280;25829;50.228;18.936;2023-10-09T08:41:12;98913.34;;;5.64;81.24
40117;BME280;25829;50.228;18.936;2023-10-09T08:45:05;98915.47;;;5.76;81.35
40117;BME280;25829;50.228;18.936;2023-10-09T08:48:09;98901.06;;;5.80;81.57
40117;BME280;25829;50.228;18.936;2023-10-09T08:51:17;98891.06;;;5.84;80.77
40117;BME280;25829;50.228;18.936;2023-10-09T08:54:19;98885.53;;;5.79;80.04
40117;BME280;25829;50.228;18.936;2023-10-09T08:57:20;98880.81;;;5.74;80.80
40117;BME280;25829;50.228;18.936;2023-10-09T09:00:23;98876.53;;;5.73;80.24
40117;BME280;25829;50.228;18.936;2023-10-09T09:03:41;98879.81;;;5.75;80.08
40117;BME280;25829;50.228;18.936;2023-10-09T09:06:44;98886.03;;;5.82;80.09
40117;BME280;25829;50.228;18.936;2023-10-09T09:10:05;98884.41;;;5.90;79.85
40117;BME280;25829;50.228;18.936;2023-10-09T09:13:35;98877.00;;;6.01;79.36
40117;BME280;25829;50.228;18.936;2023-10-09T09:16:40;98873.88;;;6.06;79.10
40117;BME280;25829;50.228;18.936;2023-10-09T09:19:44;98871.28;;;6.06;79.20
40117;BME280;25829;50.228;18.936;2023-10-09T09:23:01;98867.47;;;6.17;78.97
40117;BME280;25829;50.228;18.936;2023-10-09T09:26:05;98878.56;;;6.19;79.02
40117;BME280;25829;50.228;18.936;2023-10-09T09:29:15;98869.41;;;6.23;79.09
40117;BME280;25829;50.228;18.936;2023-10-09T09:32:31;98857.59;;;6.27;78.59
40117;BME280;25829;50.228;18.936;2023-10-09T09:35:38;98859.19;;;6.36;79.04
40117;BME280;25829;50.228;18.936;2023-10-09T09:38:39;98853.59;;;6.47;79.22
40117;BME280;25829;50.228;18.936;2023-10-09T09:41:58;98842.25;;;6.55;79.04
40117;BME280;25829;50.228;18.936;2023-10-09T09:45:06;98845.69;;;6.55;78.27
40117;BME280;25829;50.228;18.936;2023-10-09T09:48:07;98845.16;;;6.60;78.90
40117;BME280;25829;50.228;18.936;2023-10-09T09:51:12;98843.47;;;6.67;78.82
40117;BME280;25829;50.228;18.936;2023-10-09T09:54:17;98848.22;;;6.72;77.83
40117;BME280;25829;50.228;18.936;2023-10-09T09:57:23;98845.41;;;6.73;77.91
40117;BME280;25829;50.228;18.936;2023-10-09T10:00:45;98843.25;;;6.77;78.20
40117;BME280;25829;50.228;18.936;2023-10-09T10:03:58;98837.38;;;6.75;77.90
40117;BME280;25829;50.228;18.936;2023-10-09T10:07:00;98845.63;;;6.64;77.71
40117;BME280;25829;50.228;18.936;2023-10-09T10:10:39;98862.41;;;6.54;77.27
40117;BME280;25829;50.228;18.936;2023-10-09T10:14:18;98838.19;;;6.44;77.85
40117;BME280;25829;50.228;18.936;2023-10-09T10:17:31;98841.31;;;6.48;78.41
40117;BME280;25829;50.228;18.936;2023-10-09T10:27:33;98828.59;;;6.60;78.04
40117;BME280;25829;50.228;18.936;2023-10-09T10:30:46;98827.59;;;6.61;78.03
40117;BME280;25829;50.228;18.936;2023-10-09T10:36:56;98823.44;;;6.51;78.49
40117;BME280;25829;50.228;18.936;2023-10-09T10:40:00;98811.81;;;6.46;77.77
40117;BME280;25829;50.228;18.936;2023-10-09T10:43:02;98820.81;;;6.43;78.50
40117;BME280;25829;50.228;18.936;2023-10-09T10:46:31;98806.41;;;6.47;78.50
40117;BME280;25829;50.228;18.936;2023-10-09T10:49:34;98803.72;;;6.55;78.94
40117;BME280;25829;50.228;18.936;2023-10-09T10:52:41;98797.50;;;6.57;78.24
40117;BME280;25829;50.228;18.936;2023-10-09T10:55:57;98794.25;;;6.54;78.46
40117;BME280;25829;50.228;18.936;2023-10-09T10:58:58;98786.72;;;6.51;78.31
40117;BME280;25829;50.228;18.936;2023-10-09T11:02:11;98764.63;;;6.46;78.32
40117;BME280;25829;50.228;18.936;2023-10-09T11:05:13;98760.31;;;6.30;78.84
40117;BME280;25829;50.228;18.936;2023-10-09T11:08:25;98755.69;;;6.09;79.21
40117;BME280;25829;50.228;18.936;2023-10-09T11:11:41;98746.19;;;6.08;79.84
40117;BME280;25829;50.228;18.936;2023-10-09T11:14:50;98747.94;;;6.16;79.67
40117;BME280;25829;50.228;18.936;2023-10-09T11:22:45;98719.25;;;5.91;80.01
40117;BME280;25829;50.228;18.936;2023-10-09T11:26:21;98724.31;;;5.84;80.61
40117;BME280;25829;50.228;18.936;2023-10-09T11:29:29;98733.00;;;5.93;80.45
40117;BME280;25829;50.228;18.936;2023-10-09T11:37:55;98729.38;;;5.94;80.11
40117;BME280;25829;50.228;18.936;2023-10-09T11:40:56;98713.84;;;5.93;80.13
40117;BME280;25829;50.228;18.936;2023-10-09T11:43:57;98710.25;;;5.94;80.53
40117;BME280;25829;50.228;18.936;2023-10-09T11:46:58;98726.09;;;6.00;79.84
40117;BME280;25829;50.228;18.936;2023-10-09T11:50:14;98722.91;;;6.13;80.21
40117;BME280;25829;50.228;18.936;2023-10-09T11:53:18;98709.75;;;6.21;80.16
40117;BME280;25829;50.228;18.936;2023-10-09T11:56:25;98705.34;;;6.22;79.02
40117;BME280;25829;50.228;18.936;2023-10-09T12:09:31;98706.03;;;6.16;79.56
40117;BME280;25829;50.228;18.936;2023-10-09T12:12:40;98706.84;;;6.16;79.51
40117;BME280;25829;50.228;18.936;2023-10-09T12:15:46;98716.88;;;6.13;79.99
40117;BME280;25829;50.228;18.936;2023-10-09T12:18:47;98710.66;;;6.05;79.80
40117;BME280;25829;50.228;18.936;2023-10-09T12:21:53;98714.00;;;5.99;80.15
40117;BME280;25829;50.228;18.936;2023-10-09T12:24:54;98703.84;;;5.96;80.32
40117;BME280;25829;50.228;18.936;2023-10-09T12:27:54;98703.03;;;5.96;80.24
40117;BME280;25829;50.228;18.936;2023-10-09T12:30:57;98704.13;;;6.01;80.72
40117;BME280;25829;50.228;18.936;2023-10-09T12:34:01;98701.19;;;6.04;80.72
40117;BME280;25829;50.228;18.936;2023-10-09T12:37:05;98709.56;;;6.00;80.33
40117;BME280;25829;50.228;18.936;2023-10-09T12:40:07;98707.94;;;5.99;80.51
40117;BME280;25829;50.228;18.936;2023-10-09T12:43:11;98701.56;;;5.93;80.33
40117;BME280;25829;50.228;18.936;2023-10-09T12:46:18;98697.50;;;5.91;80.89
40117;BME280;25829;50.228;18.936;2023-10-09T12:49:23;98702.84;;;5.97;80.98
40117;BME280;25829;50.228;18.936;2023-10-09T12:52:26;98700.09;;;5.99;80.84
40117;BME280;25829;50.228;18.936;2023-10-09T12:55:30;98706.41;;;6.04;80.66
40117;BME280;25829;50.228;18.936;2023-10-09T12:58:34;98700.19;;;6.05;80.83
40117;BME280;25829;50.228;18.936;2023-10-09T13:01:37;98701.97;;;6.13;80.81
40117;BME280;25829;50.228;18.936;2023-10-09T13:04:44;98683.44;;;6.15;80.40
40117;BME280;25829;50.228;18.936;2023-10-09T13:07:45;98697.31;;;6.23;80.50
40117;BME280;25829;50.228;18.936;2023-10-09T13:10:46;98688.59;;;6.31;80.78
40117;BME280;25829;50.228;18.936;2023-10-09T13:13:46;98681.72;;;6.30;80.33
40117;BME280;25829;50.228;18.936;2023-10-09T13:16:49;98674.56;;;6.24;80.50
40117;BME280;25829;50.228;18.936;2023-10-09T13:19:53;98677.31;;;6.22;81.02
40117;BME280;25829;50.228;18.936;2023-10-09T13:22:55;98662.13;;;6.18;81.45
40117;BME280;25829;50.228;18.936;2023-10-09T13:25:59;98659.53;;;6.18;81.39
40117;BME280;25829;50.228;18.936;2023-10-09T13:29:07;98641.00;;;6.19;81.41
40117;BME280;25829;50.228;18.936;2023-10-09T13:32:11;98650.31;;;6.22;81.62
40117;BME280;25829;50.228;18.936;2023-10-09T13:35:22;98655.59;;;6.37;81.91
40117;BME280;25829;50.228;18.936;2023-10-09T13:38:37;98651.81;;;6.39;81.20
40117;BME280;25829;50.228;18.936;2023-10-09T13:41:43;98635.38;;;6.30;81.53
40117;BME280;25829;50.228;18.936;2023-10-09T13:44:44;98638.78;;;6.31;81.38
40117;BME280;25829;50.228;18.936;2023-10-09T13:47:44;98644.66;;;6.33;81.56
40117;BME280;25829;50.228;18.936;2023-10-09T13:50:45;98640.94;;;6.27;81.80
40117;BME280;25829;50.228;18.936;2023-10-09T13:53:46;98652.25;;;6.28;82.12
40117;BME280;25829;50.228;18.936;2023-10-09T13:56:48;98648.13;;;6.34;81.78
40117;BME280;25829;50.228;18.936;2023-10-09T13:59:54;98656.78;;;6.34;81.35
40117;BME280;25829;50.228;18.936;2023-10-09T14:02:56;98654.78;;;6.36;81.97
40117;BME280;25829;50.228;18.936;2023-10-09T14:05:57;98652.81;;;6.38;81.57
40117;BME280;25829;50.228;18.936;2023-10-09T14:09:11;98651.47;;;6.42;81.86
40117;BME280;25829;50.228;18.936;2023-10-09T14:12:28;98654.28;;;6.41;81.78
40117;BME280;25829;50.228;18.936;2023-10-09T14:15:31;98650.47;;;6.43;81.41
40117;BME280;25829;50.228;18.936;2023-10-09T14:18:33;98631.66;;;6.40;81.48
40117;BME280;25829;50.228;18.936;2023-10-09T14:21:34;98622.03;;;6.40;82.12
40117;BME280;25829;50.228;18.936;2023-10-09T14:24:38;98609.56;;;6.42;82.81
40117;BME280;25829;50.228;18.936;2023-10-09T14:27:39;98614.97;;;6.41;82.22
40117;BME280;25829;50.228;18.936;2023-10-09T14:30:39;98618.22;;;6.43;82.60
40117;BME280;25829;50.228;18.936;2023-10-09T14:33:43;98618.22;;;6.43;82.39
40117;BME280;25829;50.228;18.936;2023-10-09T14:36:51;98616.88;;;6.47;82.01
40117;BME280;25829;50.228;18.936;2023-10-09T14:39:52;98639.50;;;6.48;81.90
40117;BME280;25829;50.228;18.936;2023-10-09T14:42:53;98629.28;;;6.53;81.70
40117;BME280;25829;50.228;18.936;2023-10-09T14:45:54;98635.16;;;6.55;81.58
40117;BME280;25829;50.228;18.936;2023-10-09T14:48:55;98638.94;;;6.52;81.30
40117;BME280;25829;50.228;18.936;2023-10-09T14:51:56;98645.47;;;6.57;81.87
40117;BME280;25829;50.228;18.936;2023-10-09T14:54:59;98645.31;;;6.58;81.69
40117;BME280;25829;50.228;18.936;2023-10-09T14:58:00;98654.59;;;6.61;82.00
40117;BME280;25829;50.228;18.936;2023-10-09T15:01:11;98658.13;;;6.68;82.06
40117;BME280;25829;50.228;18.936;2023-10-09T15:04:16;98663.78;;;6.79;81.74
40117;BME280;25829;50.228;18.936;2023-10-09T15:07:17;98664.34;;;6.90;81.90
40117;BME280;25829;50.228;18.936;2023-10-09T15:10:18;98654.56;;;6.98;81.17
40117;BME280;25829;50.228;18.936;2023-10-09T15:13:19;98651.06;;;7.06;81.12
40117;BME280;25829;50.228;18.936;2023-10-09T15:16:19;98662.63;;;7.12;81.24
40117;BME280;25829;50.228;18.936;2023-10-09T15:19:21;98660.09;;;7.18;80.89
40117;BME280;25829;50.228;18.936;2023-10-09T15:22:29;98676.31;;;7.22;80.56
40117;BME280;25829;50.228;18.936;2023-10-09T15:25:37;98682.19;;;7.24;80.48
40117;BME280;25829;50.228;18.936;2023-10-09T15:28:42;98680.03;;;7.27;80.69
40117;BME280;25829;50.228;18.936;2023-10-09T15:31:43;98684.56;;;7.34;79.93
40117;BME280;25829;50.228;18.936;2023-10-09T15:34:44;98690.44;;;7.36;79.80
40117;BME280;25829;50.228;18.936;2023-10-09T15:37:45;98695.31;;;7.39;79.90
40117;BME280;25829;50.228;18.936;2023-10-09T15:40:46;98698.75;;;7.39;80.22
40117;BME280;25829;50.228;18.936;2023-10-09T15:43:55;98700.00;;;7.43;80.17
40117;BME280;25829;50.228;18.936;2023-10-09T15:46:57;98688.34;;;7.46;79.75
40117;BME280;25829;50.228;18.936;2023-10-09T15:50:00;98698.66;;;7.47;79.55
40117;BME280;25829;50.228;18.936;2023-10-09T15:53:00;98695.84;;;7.49;79.64
40117;BME280;25829;50.228;18.936;2023-10-09T15:56:02;98684.56;;;7.48;79.55
40117;BME280;25829;50.228;18.936;2023-10-09T15:59:03;98681.19;;;7.40;79.20
40117;BME280;25829;50.228;18.936;2023-10-09T16:02:05;98678.47;;;7.33;79.59
40117;BME280;25829;50.228;18.936;2023-10-09T16:05:07;98672.59;;;7.31;79.61
40117;BME280;25829;50.228;18.936;2023-10-09T16:08:10;98665.34;;;7.18;80.06
40117;BME280;25829;50.228;18.936;2023-10-09T16:11:16;98668.88;;;7.11;79.83
40117;BME280;25829;50.228;18.936;2023-10-09T16:14:17;98656.84;;;7.01;80.44
40117;BME280;25829;50.228;18.936;2023-10-09T16:17:18;98672.13;;;6.98;80.85
40117;BME280;25829;50.228;18.936;2023-10-09T16:20:19;98684.88;;;7.01;80.68
40117;BME280;25829;50.228;18.936;2023-10-09T16:23:26;98681.25;;;7.02;80.34
40117;BME280;25829;50.228;18.936;2023-10-09T16:26:28;98681.00;;;6.97;80.84
40117;BME280;25829;50.228;18.936;2023-10-09T16:29:29;98687.75;;;6.91;80.58
40117;BME280;25829;50.228;18.936;2023-10-09T16:32:30;98690.09;;;6.86;81.00
40117;BME280;25829;50.228;18.936;2023-10-09T16:35:32;98700.06;;;6.91;81.39
40117;BME280;25829;50.228;18.936;2023-10-09T16:38:37;98701.16;;;6.96;81.41
40117;BME280;25829;50.228;18.936;2023-10-09T16:41:40;98713.19;;;7.06;81.10
40117;BME280;25829;50.228;18.936;2023-10-09T16:44:42;98719.91;;;7.08;80.42
40117;BME280;25829;50.228;18.936;2023-10-09T16:47:49;98723.41;;;7.00;80.42
40117;BME280;25829;50.228;18.936;2023-10-09T16:50:59;98731.56;;;7.06;81.12
40117;BME280;25829;50.228;18.936;2023-10-09T16:54:01;98732.31;;;7.14;80.99
40117;BME280;25829;50.228;18.936;2023-10-09T16:57:03;98733.88;;;7.23;80.92
40117;BME280;25829;50.228;18.936;2023-10-09T17:00:15;98734.78;;;7.31;80.96
40117;BME280;25829;50.228;18.936;2023-10-09T17:03:29;98732.41;;;7.36;80.96
40117;BME280;25829;50.228;18.936;2023-10-09T17:06:30;98743.38;;;7.39;80.47
40117;BME280;25829;50.228;18.936;2023-10-09T17:09:31;98737.66;;;7.36;80.14
40117;BME280;25829;50.228;18.936;2023-10-09T17:12:35;98743.16;;;7.26;80.27
40117;BME280;25829;50.228;18.936;2023-10-09T17:15:37;98754.22;;;7.21;80.63
40117;BME280;25829;50.228;18.936;2023-10-09T17:18:38;98765.25;;;7.17;80.67
40117;BME280;25829;50.228;18.936;2023-10-09T17:21:39;98761.41;;;7.05;81.07
40117;BME280;25829;50.228;18.936;2023-10-09T17:24:41;98760.03;;;6.94;81.52
40117;BME280;25829;50.228;18.936;2023-10-09T17:27:43;98763.19;;;6.89;81.71
40117;BME280;25829;50.228;18.936;2023-10-09T17:30:45;98774.66;;;6.88;81.72